sensor_id;sensor_type;location;lat;lon;timestamp;temperature;humidity
28460;DHT22;32528;45.712;9.192;2022-08-04T00:00:26;25.00;73.70
28460;DHT22;32528;45.712;9.192;2022-08-04T00:07:09;25.00;73.70
28460;DHT22;32528;45.712;9.192;2022-08-04T00:09:40;25.00;74.30
28460;DHT22;32528;45.712;9.192;2022-08-04T00:11:45;25.00;74.30
28460;DHT22;32528;45.712;9.192;2022-08-04T00:13:53;25.00;73.70
28460;DHT22;32528;45.712;9.192;2022-08-04T00:15:57;25.00;74.00
28460;DHT22;32528;45.712;9.192;2022-08-04T00:18:02;25.00;74.10
28460;DHT22;32528;45.712;9.192;2022-08-04T00:20:04;25.00;74.30
28460;DHT22;32528;45.712;9.192;2022-08-04T00:22:10;25.00;74.50
28460;DHT22;32528;45.712;9.192;2022-08-04T00:24:11;24.90;74.60
28460;DHT22;32528;45.712;9.192;2022-08-04T00:26:15;24.90;74.60
28460;DHT22;32528;45.712;9.192;2022-08-04T00:28:17;24.80;74.70
28460;DHT22;32528;45.712;9.192;2022-08-04T00:30:18;24.80;75.10
28460;DHT22;32528;45.712;9.192;2022-08-04T00:32:19;24.70;75.10
28460;DHT22;32528;45.712;9.192;2022-08-04T00:34:24;24.80;75.40
28460;DHT22;32528;45.712;9.192;2022-08-04T00:36:25;24.70;75.20
28460;DHT22;32528;45.712;9.192;2022-08-04T00:38:28;24.70;75.40
28460;DHT22;32528;45.712;9.192;2022-08-04T00:45:36;24.60;76.10
28460;DHT22;32528;45.712;9.192;2022-08-04T00:48:12;24.60;76.20
28460;DHT22;32528;45.712;9.192;2022-08-04T00:52:32;24.50;76.40
28460;DHT22;32528;45.712;9.192;2022-08-04T00:54:47;24.50;76.40
28460;DHT22;32528;45.712;9.192;2022-08-04T01:01:59;24.40;76.90
28460;DHT22;32528;45.712;9.192;2022-08-04T01:04:13;24.30;76.60
28460;DHT22;32528;45.712;9.192;2022-08-04T01:06:35;24.30;77.30
28460;DHT22;32528;45.712;9.192;2022-08-04T01:09:00;24.30;77.60
28460;DHT22;32528;45.712;9.192;2022-08-04T01:16:01;24.30;78.00
28460;DHT22;32528;45.712;9.192;2022-08-04T01:18:07;24.20;77.80
28460;DHT22;32528;45.712;9.192;2022-08-04T01:20:09;24.30;77.40
28460;DHT22;32528;45.712;9.192;2022-08-04T01:22:17;24.30;77.30
28460;DHT22;32528;45.712;9.192;2022-08-04T01:24:36;24.20;77.30
28460;DHT22;32528;45.712;9.192;2022-08-04T01:29:11;24.20;78.50
28460;DHT22;32528;45.712;9.192;2022-08-04T01:33:48;24.30;78.00
28460;DHT22;32528;45.712;9.192;2022-08-04T01:35:55;24.20;77.60
28460;DHT22;32528;45.712;9.192;2022-08-04T01:37:59;24.20;77.80
28460;DHT22;32528;45.712;9.192;2022-08-04T01:40:06;24.20;77.60
28460;DHT22;32528;45.712;9.192;2022-08-04T01:42:11;24.30;77.60
28460;DHT22;32528;45.712;9.192;2022-08-04T01:44:13;24.30;77.60
28460;DHT22;32528;45.712;9.192;2022-08-04T01:46:16;24.30;77.60
28460;DHT22;32528;45.712;9.192;2022-08-04T01:48:22;24.30;77.60
28460;DHT22;32528;45.712;9.192;2022-08-04T01:50:24;24.30;77.90
28460;DHT22;32528;45.712;9.192;2022-08-04T01:52:28;24.20;77.80
28460;DHT22;32528;45.712;9.192;2022-08-04T01:54:29;24.20;77.80
28460;DHT22;32528;45.712;9.192;2022-08-04T01:56:31;24.20;77.90
28460;DHT22;32528;45.712;9.192;2022-08-04T01:58:34;24.20;77.80
28460;DHT22;32528;45.712;9.192;2022-08-04T02:00:37;24.20;77.80
28460;DHT22;32528;45.712;9.192;2022-08-04T02:02:44;24.20;77.80
28460;DHT22;32528;45.712;9.192;2022-08-04T02:04:44;24.20;77.80
28460;DHT22;32528;45.712;9.192;2022-08-04T02:10:04;24.20;78.60
28460;DHT22;32528;45.712;9.192;2022-08-04T02:12:37;24.20;78.20
28460;DHT22;32528;45.712;9.192;2022-08-04T02:17:29;24.20;78.30
28460;DHT22;32528;45.712;9.192;2022-08-04T02:21:56;24.20;78.50
28460;DHT22;32528;45.712;9.192;2022-08-04T02:24:05;24.20;78.00
28460;DHT22;32528;45.712;9.192;2022-08-04T02:26:12;24.10;77.80
28460;DHT22;32528;45.712;9.192;2022-08-04T02:30:33;24.10;78.30
28460;DHT22;32528;45.712;9.192;2022-08-04T02:32:36;24.20;78.60
28460;DHT22;32528;45.712;9.192;2022-08-04T02:37:05;24.10;78.90
28460;DHT22;32528;45.712;9.192;2022-08-04T02:39:10;24.10;78.40
28460;DHT22;32528;45.712;9.192;2022-08-04T02:41:12;24.00;78.60
28460;DHT22;32528;45.712;9.192;2022-08-04T02:43:19;24.00;78.50
28460;DHT22;32528;45.712;9.192;2022-08-04T02:45:20;24.00;78.50
28460;DHT22;32528;45.712;9.192;2022-08-04T02:47:24;24.00;78.50
28460;DHT22;32528;45.712;9.192;2022-08-04T02:49:25;24.00;78.50
28460;DHT22;32528;45.712;9.192;2022-08-04T02:51:31;24.00;78.50
28460;DHT22;32528;45.712;9.192;2022-08-04T02:53:36;24.00;78.30
28460;DHT22;32528;45.712;9.192;2022-08-04T02:55:39;24.00;77.90
28460;DHT22;32528;45.712;9.192;2022-08-04T02:57:41;24.00;77.90
28460;DHT22;32528;45.712;9.192;2022-08-04T03:00:06;24.10;77.80
28460;DHT22;32528;45.712;9.192;2022-08-04T03:02:16;24.10;77.80
28460;DHT22;32528;45.712;9.192;2022-08-04T03:07:14;24.10;77.80
28460;DHT22;32528;45.712;9.192;2022-08-04T03:11:30;24.10;78.50
28460;DHT22;32528;45.712;9.192;2022-08-04T03:13:58;24.00;78.50
28460;DHT22;32528;45.712;9.192;2022-08-04T03:16:46;24.00;78.90
28460;DHT22;32528;45.712;9.192;2022-08-04T03:21:35;23.90;78.90
28460;DHT22;32528;45.712;9.192;2022-08-04T03:26:13;23.90;78.80
28460;DHT22;32528;45.712;9.192;2022-08-04T03:38:50;23.90;78.70
28460;DHT22;32528;45.712;9.192;2022-08-04T03:48:14;23.80;79.10
28460;DHT22;32528;45.712;9.192;2022-08-04T04:02:19;23.80;79.10
28460;DHT22;32528;45.712;9.192;2022-08-04T04:06:52;23.70;79.10
28460;DHT22;32528;45.712;9.192;2022-08-04T04:20:44;23.80;80.20
28460;DHT22;32528;45.712;9.192;2022-08-04T04:34:25;23.90;78.30
28460;DHT22;32528;45.712;9.192;2022-08-04T04:39:38;24.00;78.40
28460;DHT22;32528;45.712;9.192;2022-08-04T04:42:01;24.00;78.60
28460;DHT22;32528;45.712;9.192;2022-08-04T04:49:04;24.10;78.20
28460;DHT22;32528;45.712;9.192;2022-08-04T04:55:39;24.10;78.00
28460;DHT22;32528;45.712;9.192;2022-08-04T04:57:44;24.10;78.20
28460;DHT22;32528;45.712;9.192;2022-08-04T04:59:58;24.10;77.80
28460;DHT22;32528;45.712;9.192;2022-08-04T05:18:48;24.50;77.90
28460;DHT22;32528;45.712;9.192;2022-08-04T05:21:06;24.50;77.80
28460;DHT22;32528;45.712;9.192;2022-08-04T05:23:18;24.60;77.60
28460;DHT22;32528;45.712;9.192;2022-08-04T05:27:29;24.80;77.60
28460;DHT22;32528;45.712;9.192;2022-08-04T05:29:35;24.80;77.00
28460;DHT22;32528;45.712;9.192;2022-08-04T05:31:44;24.90;76.80
28460;DHT22;32528;45.712;9.192;2022-08-04T05:33:53;24.90;76.60
28460;DHT22;32528;45.712;9.192;2022-08-04T05:35:58;25.00;76.40
28460;DHT22;32528;45.712;9.192;2022-08-04T05:38:01;25.00;76.30
28460;DHT22;32528;45.712;9.192;2022-08-04T05:40:04;25.10;76.20
28460;DHT22;32528;45.712;9.192;2022-08-04T05:42:06;25.20;76.10
28460;DHT22;32528;45.712;9.192;2022-08-04T05:44:09;25.20;76.30
28460;DHT22;32528;45.712;9.192;2022-08-04T05:46:11;25.30;76.20
28460;DHT22;32528;45.712;9.192;2022-08-04T05:48:13;25.40;75.80
28460;DHT22;32528;45.712;9.192;2022-08-04T05:50:14;25.40;75.40
28460;DHT22;32528;45.712;9.192;2022-08-04T05:52:16;25.50;75.00
28460;DHT22;32528;45.712;9.192;2022-08-04T05:54:19;25.60;75.30
28460;DHT22;32528;45.712;9.192;2022-08-04T05:56:20;25.60;75.10
28460;DHT22;32528;45.712;9.192;2022-08-04T05:58:21;25.70;74.80
28460;DHT22;32528;45.712;9.192;2022-08-04T06:00:23;25.80;74.80
28460;DHT22;32528;45.712;9.192;2022-08-04T06:02:27;25.80;74.50
28460;DHT22;32528;45.712;9.192;2022-08-04T06:04:37;25.90;74.30
28460;DHT22;32528;45.712;9.192;2022-08-04T06:06:39;26.00;74.50
28460;DHT22;32528;45.712;9.192;2022-08-04T06:08:41;26.10;74.00
28460;DHT22;32528;45.712;9.192;2022-08-04T06:10:43;26.20;74.00
28460;DHT22;32528;45.712;9.192;2022-08-04T06:12:54;26.30;73.80
28460;DHT22;32528;45.712;9.192;2022-08-04T06:14:56;26.40;73.60
28460;DHT22;32528;45.712;9.192;2022-08-04T06:16:58;26.50;73.20
28460;DHT22;32528;45.712;9.192;2022-08-04T06:19:08;26.60;73.30
28460;DHT22;32528;45.712;9.192;2022-08-04T06:21:10;26.70;73.00
28460;DHT22;32528;45.712;9.192;2022-08-04T06:23:14;26.80;73.50
28460;DHT22;32528;45.712;9.192;2022-08-04T06:25:19;26.90;72.90
28460;DHT22;32528;45.712;9.192;2022-08-04T06:27:22;27.00;72.60
28460;DHT22;32528;45.712;9.192;2022-08-04T06:29:24;27.10;72.50
28460;DHT22;32528;45.712;9.192;2022-08-04T06:31:31;27.20;72.00
28460;DHT22;32528;45.712;9.192;2022-08-04T06:34:02;27.20;71.50
28460;DHT22;32528;45.712;9.192;2022-08-04T06:36:05;27.40;71.70
28460;DHT22;32528;45.712;9.192;2022-08-04T06:38:07;27.40;71.10
28460;DHT22;32528;45.712;9.192;2022-08-04T06:40:10;27.50;70.70
28460;DHT22;32528;45.712;9.192;2022-08-04T06:42:11;27.60;70.80
28460;DHT22;32528;45.712;9.192;2022-08-04T06:44:13;27.70;70.60
28460;DHT22;32528;45.712;9.192;2022-08-04T06:46:15;27.80;70.10
28460;DHT22;32528;45.712;9.192;2022-08-04T06:48:17;27.90;70.00
28460;DHT22;32528;45.712;9.192;2022-08-04T06:50:19;27.90;69.50
28460;DHT22;32528;45.712;9.192;2022-08-04T06:52:21;28.00;69.70
28460;DHT22;32528;45.712;9.192;2022-08-04T06:54:22;28.10;69.30
28460;DHT22;32528;45.712;9.192;2022-08-04T06:56:23;28.20;69.40
28460;DHT22;32528;45.712;9.192;2022-08-04T06:58:25;28.30;68.50
28460;DHT22;32528;45.712;9.192;2022-08-04T07:00:27;28.40;68.40
28460;DHT22;32528;45.712;9.192;2022-08-04T07:02:32;28.50;67.50
28460;DHT22;32528;45.712;9.192;2022-08-04T07:04:34;28.50;66.90
28460;DHT22;32528;45.712;9.192;2022-08-04T07:06:35;28.50;66.10
28460;DHT22;32528;45.712;9.192;2022-08-04T07:08:36;28.50;66.50
28460;DHT22;32528;45.712;9.192;2022-08-04T07:10:37;28.60;66.50
28460;DHT22;32528;45.712;9.192;2022-08-04T07:12:39;28.70;66.20
28460;DHT22;32528;45.712;9.192;2022-08-04T07:14:41;28.80;66.10
28460;DHT22;32528;45.712;9.192;2022-08-04T07:16:43;28.90;66.10
28460;DHT22;32528;45.712;9.192;2022-08-04T07:18:45;29.00;65.30
28460;DHT22;32528;45.712;9.192;2022-08-04T07:20:47;29.00;64.90
28460;DHT22;32528;45.712;9.192;2022-08-04T07:22:48;29.00;64.40
28460;DHT22;32528;45.712;9.192;2022-08-04T07:24:54;29.10;64.30
28460;DHT22;32528;45.712;9.192;2022-08-04T07:26:55;29.20;63.00
28460;DHT22;32528;45.712;9.192;2022-08-04T07:28:56;29.20;62.90
28460;DHT22;32528;45.712;9.192;2022-08-04T07:31:01;29.20;62.80
28460;DHT22;32528;45.712;9.192;2022-08-04T07:33:02;29.30;63.30
28460;DHT22;32528;45.712;9.192;2022-08-04T07:35:05;29.40;62.50
28460;DHT22;32528;45.712;9.192;2022-08-04T07:37:06;29.40;61.60
28460;DHT22;32528;45.712;9.192;2022-08-04T07:39:07;29.40;61.20
28460;DHT22;32528;45.712;9.192;2022-08-04T07:41:08;29.40;60.90
28460;DHT22;32528;45.712;9.192;2022-08-04T07:43:09;29.50;60.70
28460;DHT22;32528;45.712;9.192;2022-08-04T07:45:10;29.50;60.40
28460;DHT22;32528;45.712;9.192;2022-08-04T07:47:11;29.60;60.30
28460;DHT22;32528;45.712;9.192;2022-08-04T07:49:14;29.70;59.30
28460;DHT22;32528;45.712;9.192;2022-08-04T07:51:15;29.70;58.80
28460;DHT22;32528;45.712;9.192;2022-08-04T07:53:17;29.70;58.50
28460;DHT22;32528;45.712;9.192;2022-08-04T07:55:18;29.70;59.30
28460;DHT22;32528;45.712;9.192;2022-08-04T07:57:20;29.80;60.00
28460;DHT22;32528;45.712;9.192;2022-08-04T07:59:21;29.80;60.10
28460;DHT22;32528;45.712;9.192;2022-08-04T08:01:23;29.80;60.20
28460;DHT22;32528;45.712;9.192;2022-08-04T08:03:25;29.90;60.50
28460;DHT22;32528;45.712;9.192;2022-08-04T08:05:27;29.90;60.60
28460;DHT22;32528;45.712;9.192;2022-08-04T08:07:33;29.90;60.60
28460;DHT22;32528;45.712;9.192;2022-08-04T08:09:34;29.90;60.00
28460;DHT22;32528;45.712;9.192;2022-08-04T08:11:35;30.00;59.80
28460;DHT22;32528;45.712;9.192;2022-08-04T08:13:36;30.00;59.50
28460;DHT22;32528;45.712;9.192;2022-08-04T08:15:38;30.10;59.60
28460;DHT22;32528;45.712;9.192;2022-08-04T08:17:39;30.10;59.80
28460;DHT22;32528;45.712;9.192;2022-08-04T08:19:40;30.10;59.60
28460;DHT22;32528;45.712;9.192;2022-08-04T08:21:45;30.20;59.20
28460;DHT22;32528;45.712;9.192;2022-08-04T08:23:46;30.20;58.90
28460;DHT22;32528;45.712;9.192;2022-08-04T08:25:48;30.20;58.70
28460;DHT22;32528;45.712;9.192;2022-08-04T08:27:49;30.30;59.00
28460;DHT22;32528;45.712;9.192;2022-08-04T08:29:50;30.40;59.60
28460;DHT22;32528;45.712;9.192;2022-08-04T08:31:55;30.30;59.00
28460;DHT22;32528;45.712;9.192;2022-08-04T08:33:56;30.40;59.00
28460;DHT22;32528;45.712;9.192;2022-08-04T08:40:50;30.80;58.60
28460;DHT22;32528;45.712;9.192;2022-08-04T08:48:02;30.70;57.60
28460;DHT22;32528;45.712;9.192;2022-08-04T08:52:55;30.80;58.30
28460;DHT22;32528;45.712;9.192;2022-08-04T09:04:03;31.00;57.70
28460;DHT22;32528;45.712;9.192;2022-08-04T09:10:53;31.10;57.00
28460;DHT22;32528;45.712;9.192;2022-08-04T09:13:12;31.10;56.90
28460;DHT22;32528;45.712;9.192;2022-08-04T09:17:53;31.20;56.70
28460;DHT22;32528;45.712;9.192;2022-08-04T09:20:53;31.10;56.50
28460;DHT22;32528;45.712;9.192;2022-08-04T09:23:20;31.20;56.30
28460;DHT22;32528;45.712;9.192;2022-08-04T09:25:29;31.20;56.00
28460;DHT22;32528;45.712;9.192;2022-08-04T09:27:49;31.20;56.20
28460;DHT22;32528;45.712;9.192;2022-08-04T09:37:14;31.30;54.40
28460;DHT22;32528;45.712;9.192;2022-08-04T09:39:35;31.40;55.00
28460;DHT22;32528;45.712;9.192;2022-08-04T09:42:17;31.50;55.40
28460;DHT22;32528;45.712;9.192;2022-08-04T09:44:27;31.60;54.80
28460;DHT22;32528;45.712;9.192;2022-08-04T09:46:44;31.60;54.80
28460;DHT22;32528;45.712;9.192;2022-08-04T09:48:57;31.50;55.00
28460;DHT22;32528;45.712;9.192;2022-08-04T09:51:01;31.50;54.40
28460;DHT22;32528;45.712;9.192;2022-08-04T09:58:04;31.70;53.70
28460;DHT22;32528;45.712;9.192;2022-08-04T10:00:12;31.70;53.70
28460;DHT22;32528;45.712;9.192;2022-08-04T10:02:18;31.70;53.90
28460;DHT22;32528;45.712;9.192;2022-08-04T10:04:21;31.70;53.60
28460;DHT22;32528;45.712;9.192;2022-08-04T10:20:12;32.00;52.30
28460;DHT22;32528;45.712;9.192;2022-08-04T10:22:24;32.10;52.20
28460;DHT22;32528;45.712;9.192;2022-08-04T10:27:00;32.20;53.00
28460;DHT22;32528;45.712;9.192;2022-08-04T10:29:03;32.30;53.10
28460;DHT22;32528;45.712;9.192;2022-08-04T10:31:08;32.30;53.10
28460;DHT22;32528;45.712;9.192;2022-08-04T10:33:51;32.40;52.60
28460;DHT22;32528;45.712;9.192;2022-08-04T10:36:00;32.40;52.00
28460;DHT22;32528;45.712;9.192;2022-08-04T10:38:11;32.40;52.10
28460;DHT22;32528;45.712;9.192;2022-08-04T10:40:35;32.50;52.00
28460;DHT22;32528;45.712;9.192;2022-08-04T10:42:57;32.50;52.40
28460;DHT22;32528;45.712;9.192;2022-08-04T10:45:16;32.40;52.50
28460;DHT22;32528;45.712;9.192;2022-08-04T10:47:22;32.30;51.30
28460;DHT22;32528;45.712;9.192;2022-08-04T10:49:36;32.40;51.80
28460;DHT22;32528;45.712;9.192;2022-08-04T10:54:07;32.60;51.90
28460;DHT22;32528;45.712;9.192;2022-08-04T10:56:14;32.60;51.90
28460;DHT22;32528;45.712;9.192;2022-08-04T10:58:18;32.50;52.00
28460;DHT22;32528;45.712;9.192;2022-08-04T11:00:26;32.50;52.40
28460;DHT22;32528;45.712;9.192;2022-08-04T11:05:04;32.70;53.00
28460;DHT22;32528;45.712;9.192;2022-08-04T11:07:07;32.80;52.70
28460;DHT22;32528;45.712;9.192;2022-08-04T11:09:10;32.70;51.90
28460;DHT22;32528;45.712;9.192;2022-08-04T11:13:43;32.70;51.60
28460;DHT22;32528;45.712;9.192;2022-08-04T11:15:53;32.80;52.20
28460;DHT22;32528;45.712;9.192;2022-08-04T11:18:04;32.90;52.50
28460;DHT22;32528;45.712;9.192;2022-08-04T11:22:24;32.90;51.00
28460;DHT22;32528;45.712;9.192;2022-08-04T11:24:44;32.80;50.90
28460;DHT22;32528;45.712;9.192;2022-08-04T11:26:55;32.90;51.10
28460;DHT22;32528;45.712;9.192;2022-08-04T11:31:27;33.00;50.90
28460;DHT22;32528;45.712;9.192;2022-08-04T11:33:43;33.00;51.00
28460;DHT22;32528;45.712;9.192;2022-08-04T11:38:30;33.40;49.90
28460;DHT22;32528;45.712;9.192;2022-08-04T11:40:42;33.50;50.30
28460;DHT22;32528;45.712;9.192;2022-08-04T11:42:56;33.60;49.00
28460;DHT22;32528;45.712;9.192;2022-08-04T11:45:03;33.60;48.40
28460;DHT22;32528;45.712;9.192;2022-08-04T11:47:17;33.50;48.50
28460;DHT22;32528;45.712;9.192;2022-08-04T11:49:40;33.50;49.10
28460;DHT22;32528;45.712;9.192;2022-08-04T11:51:43;33.80;49.30
28460;DHT22;32528;45.712;9.192;2022-08-04T11:53:45;33.80;48.20
28460;DHT22;32528;45.712;9.192;2022-08-04T11:55:51;33.70;48.50
28460;DHT22;32528;45.712;9.192;2022-08-04T11:57:53;33.70;48.40
28460;DHT22;32528;45.712;9.192;2022-08-04T11:59:56;33.60;48.20
28460;DHT22;32528;45.712;9.192;2022-08-04T12:04:46;33.80;48.00
28460;DHT22;32528;45.712;9.192;2022-08-04T12:07:16;33.90;47.60
28460;DHT22;32528;45.712;9.192;2022-08-04T12:09:35;33.90;47.00
28460;DHT22;32528;45.712;9.192;2022-08-04T12:11:42;34.00;47.60
28460;DHT22;32528;45.712;9.192;2022-08-04T12:14:13;33.90;48.10
28460;DHT22;32528;45.712;9.192;2022-08-04T12:16:29;33.90;47.40
28460;DHT22;32528;45.712;9.192;2022-08-04T12:18:41;33.90;47.10
28460;DHT22;32528;45.712;9.192;2022-08-04T12:20:56;33.90;47.30
28460;DHT22;32528;45.712;9.192;2022-08-04T12:23:00;34.00;46.60
28460;DHT22;32528;45.712;9.192;2022-08-04T12:25:09;34.00;46.70
28460;DHT22;32528;45.712;9.192;2022-08-04T12:27:17;34.10;48.10
28460;DHT22;32528;45.712;9.192;2022-08-04T12:29:21;34.30;47.90
28460;DHT22;32528;45.712;9.192;2022-08-04T12:31:26;34.40;48.50
28460;DHT22;32528;45.712;9.192;2022-08-04T12:33:35;34.50;48.50
28460;DHT22;32528;45.712;9.192;2022-08-04T12:35:44;34.50;48.60
28460;DHT22;32528;45.712;9.192;2022-08-04T12:38:01;34.60;48.30
28460;DHT22;32528;45.712;9.192;2022-08-04T12:40:11;34.70;47.60
28460;DHT22;32528;45.712;9.192;2022-08-04T12:44:50;34.80;45.70
28460;DHT22;32528;45.712;9.192;2022-08-04T12:46:54;34.80;47.00
28460;DHT22;32528;45.712;9.192;2022-08-04T12:49:00;34.80;46.10
28460;DHT22;32528;45.712;9.192;2022-08-04T12:51:02;34.80;45.60
28460;DHT22;32528;45.712;9.192;2022-08-04T12:53:11;34.80;46.00
28460;DHT22;32528;45.712;9.192;2022-08-04T12:55:14;34.90;45.80
28460;DHT22;32528;45.712;9.192;2022-08-04T12:57:16;34.90;46.10
28460;DHT22;32528;45.712;9.192;2022-08-04T12:59:17;34.80;46.20
28460;DHT22;32528;45.712;9.192;2022-08-04T13:01:23;34.90;46.30
28460;DHT22;32528;45.712;9.192;2022-08-04T13:03:33;35.00;46.00
28460;DHT22;32528;45.712;9.192;2022-08-04T13:05:38;35.00;45.00
28460;DHT22;32528;45.712;9.192;2022-08-04T13:07:45;35.00;45.30
28460;DHT22;32528;45.712;9.192;2022-08-04T13:09:47;35.00;45.90
28460;DHT22;32528;45.712;9.192;2022-08-04T13:11:58;35.10;45.90
28460;DHT22;32528;45.712;9.192;2022-08-04T13:14:00;35.30;46.60
28460;DHT22;32528;45.712;9.192;2022-08-04T13:16:04;35.40;46.00
28460;DHT22;32528;45.712;9.192;2022-08-04T13:18:10;35.40;46.30
28460;DHT22;32528;45.712;9.192;2022-08-04T13:20:11;35.30;45.50
28460;DHT22;32528;45.712;9.192;2022-08-04T13:22:13;35.40;45.80
28460;DHT22;32528;45.712;9.192;2022-08-04T13:24:16;35.50;45.40
28460;DHT22;32528;45.712;9.192;2022-08-04T13:26:18;35.70;45.80
28460;DHT22;32528;45.712;9.192;2022-08-04T13:28:25;35.80;45.70
28460;DHT22;32528;45.712;9.192;2022-08-04T13:30:27;35.80;45.40
28460;DHT22;32528;45.712;9.192;2022-08-04T13:32:30;35.70;45.10
28460;DHT22;32528;45.712;9.192;2022-08-04T13:34:33;35.70;45.50
28460;DHT22;32528;45.712;9.192;2022-08-04T13:36:35;35.80;45.40
28460;DHT22;32528;45.712;9.192;2022-08-04T13:38:39;35.90;44.70
28460;DHT22;32528;45.712;9.192;2022-08-04T13:40:41;35.90;44.90
28460;DHT22;32528;45.712;9.192;2022-08-04T13:42:46;36.00;45.40
28460;DHT22;32528;45.712;9.192;2022-08-04T13:44:53;36.00;44.10
28460;DHT22;32528;45.712;9.192;2022-08-04T13:47:02;35.90;44.20
28460;DHT22;32528;45.712;9.192;2022-08-04T13:49:09;35.80;44.20
28460;DHT22;32528;45.712;9.192;2022-08-04T13:51:17;36.00;44.50
28460;DHT22;32528;45.712;9.192;2022-08-04T13:53:18;36.10;44.30
28460;DHT22;32528;45.712;9.192;2022-08-04T13:55:24;36.00;43.30
28460;DHT22;32528;45.712;9.192;2022-08-04T13:57:30;35.90;43.00
28460;DHT22;32528;45.712;9.192;2022-08-04T13:59:35;35.70;42.90
28460;DHT22;32528;45.712;9.192;2022-08-04T14:01:42;35.90;43.40
28460;DHT22;32528;45.712;9.192;2022-08-04T14:08:08;36.10;43.90
28460;DHT22;32528;45.712;9.192;2022-08-04T14:10:11;36.20;43.60
28460;DHT22;32528;45.712;9.192;2022-08-04T14:12:13;36.20;44.30
28460;DHT22;32528;45.712;9.192;2022-08-04T14:16:19;36.60;43.60
28460;DHT22;32528;45.712;9.192;2022-08-04T14:18:28;36.60;43.40
28460;DHT22;32528;45.712;9.192;2022-08-04T14:20:29;36.70;43.40
28460;DHT22;32528;45.712;9.192;2022-08-04T14:22:32;36.80;43.40
28460;DHT22;32528;45.712;9.192;2022-08-04T14:24:34;36.90;43.30
28460;DHT22;32528;45.712;9.192;2022-08-04T14:26:35;36.90;42.90
28460;DHT22;32528;45.712;9.192;2022-08-04T14:28:36;36.90;43.00
28460;DHT22;32528;45.712;9.192;2022-08-04T14:30:37;37.00;42.80
28460;DHT22;32528;45.712;9.192;2022-08-04T14:33:13;37.00;42.80
28460;DHT22;32528;45.712;9.192;2022-08-04T14:35:14;37.40;41.40
28460;DHT22;32528;45.712;9.192;2022-08-04T14:37:17;38.60;42.40
28460;DHT22;32528;45.712;9.192;2022-08-04T14:39:35;39.90;41.30
28460;DHT22;32528;45.712;9.192;2022-08-04T14:41:45;41.30;40.20
28460;DHT22;32528;45.712;9.192;2022-08-04T14:43:48;42.30;39.30
28460;DHT22;32528;45.712;9.192;2022-08-04T14:45:50;43.70;38.50
28460;DHT22;32528;45.712;9.192;2022-08-04T14:47:54;44.70;37.00
28460;DHT22;32528;45.712;9.192;2022-08-04T14:49:54;45.70;35.90
28460;DHT22;32528;45.712;9.192;2022-08-04T14:51:59;46.60;34.90
28460;DHT22;32528;45.712;9.192;2022-08-04T14:54:01;47.20;33.40
28460;DHT22;32528;45.712;9.192;2022-08-04T14:56:04;47.50;32.20
28460;DHT22;32528;45.712;9.192;2022-08-04T14:58:05;48.30;31.90
28460;DHT22;32528;45.712;9.192;2022-08-04T15:00:06;49.00;31.30
28460;DHT22;32528;45.712;9.192;2022-08-04T15:02:07;49.20;30.20
28460;DHT22;32528;45.712;9.192;2022-08-04T15:04:09;49.20;30.10
28460;DHT22;32528;45.712;9.192;2022-08-04T15:06:10;49.50;30.20
28460;DHT22;32528;45.712;9.192;2022-08-04T15:08:12;49.40;29.70
28460;DHT22;32528;45.712;9.192;2022-08-04T15:10:13;50.00;29.80
28460;DHT22;32528;45.712;9.192;2022-08-04T15:12:14;50.80;29.40
28460;DHT22;32528;45.712;9.192;2022-08-04T15:14:15;51.40;28.60
28460;DHT22;32528;45.712;9.192;2022-08-04T15:16:16;51.40;28.20
28460;DHT22;32528;45.712;9.192;2022-08-04T15:18:17;51.40;28.10
28460;DHT22;32528;45.712;9.192;2022-08-04T15:20:19;51.60;28.00
28460;DHT22;32528;45.712;9.192;2022-08-04T15:22:19;51.00;28.50
28460;DHT22;32528;45.712;9.192;2022-08-04T15:24:20;51.20;28.90
28460;DHT22;32528;45.712;9.192;2022-08-04T15:26:48;51.70;27.70
28460;DHT22;32528;45.712;9.192;2022-08-04T15:28:53;52.10;27.00
28460;DHT22;32528;45.712;9.192;2022-08-04T15:30:55;51.90;27.90
28460;DHT22;32528;45.712;9.192;2022-08-04T15:33:00;52.40;27.80
28460;DHT22;32528;45.712;9.192;2022-08-04T15:35:16;52.50;27.10
28460;DHT22;32528;45.712;9.192;2022-08-04T15:37:17;52.60;26.60
28460;DHT22;32528;45.712;9.192;2022-08-04T15:48:47;53.80;26.50
28460;DHT22;32528;45.712;9.192;2022-08-04T15:53:00;54.80;25.10
28460;DHT22;32528;45.712;9.192;2022-08-04T15:55:33;54.10;26.20
28460;DHT22;32528;45.712;9.192;2022-08-04T15:57:56;54.80;25.30
28460;DHT22;32528;45.712;9.192;2022-08-04T16:00:03;55.30;24.60
28460;DHT22;32528;45.712;9.192;2022-08-04T16:04:32;55.50;24.90
28460;DHT22;32528;45.712;9.192;2022-08-04T16:10:47;54.70;24.90
28460;DHT22;32528;45.712;9.192;2022-08-04T16:12:51;54.10;25.00
28460;DHT22;32528;45.712;9.192;2022-08-04T16:14:54;53.80;24.90
28460;DHT22;32528;45.712;9.192;2022-08-04T16:16:55;54.30;25.20
28460;DHT22;32528;45.712;9.192;2022-08-04T16:21:23;55.20;24.80
28460;DHT22;32528;45.712;9.192;2022-08-04T16:23:45;54.80;24.50
28460;DHT22;32528;45.712;9.192;2022-08-04T16:25:48;54.80;24.80
28460;DHT22;32528;45.712;9.192;2022-08-04T16:27:50;54.80;24.60
28460;DHT22;32528;45.712;9.192;2022-08-04T16:29:54;54.30;24.50
28460;DHT22;32528;45.712;9.192;2022-08-04T16:34:10;55.10;24.10
28460;DHT22;32528;45.712;9.192;2022-08-04T16:36:11;55.50;25.00
28460;DHT22;32528;45.712;9.192;2022-08-04T16:38:13;56.10;24.00
28460;DHT22;32528;45.712;9.192;2022-08-04T16:40:34;55.50;24.30
28460;DHT22;32528;45.712;9.192;2022-08-04T16:42:35;54.20;23.80
28460;DHT22;32528;45.712;9.192;2022-08-04T16:44:36;53.90;24.30
28460;DHT22;32528;45.712;9.192;2022-08-04T16:46:41;52.90;24.80
28460;DHT22;32528;45.712;9.192;2022-08-04T16:49:05;52.90;25.00
28460;DHT22;32528;45.712;9.192;2022-08-04T16:51:08;52.40;24.60
28460;DHT22;32528;45.712;9.192;2022-08-04T16:53:09;52.40;24.90
28460;DHT22;32528;45.712;9.192;2022-08-04T16:55:17;52.20;25.10
28460;DHT22;32528;45.712;9.192;2022-08-04T16:57:19;52.00;25.40
28460;DHT22;32528;45.712;9.192;2022-08-04T16:59:20;52.60;25.60
28460;DHT22;32528;45.712;9.192;2022-08-04T17:01:21;52.30;25.70
28460;DHT22;32528;45.712;9.192;2022-08-04T17:03:23;52.20;26.10
28460;DHT22;32528;45.712;9.192;2022-08-04T17:05:25;52.20;26.30
28460;DHT22;32528;45.712;9.192;2022-08-04T17:07:26;52.50;25.90
28460;DHT22;32528;45.712;9.192;2022-08-04T17:09:27;52.50;25.60
28460;DHT22;32528;45.712;9.192;2022-08-04T17:11:32;52.50;25.90
28460;DHT22;32528;45.712;9.192;2022-08-04T17:13:35;53.20;26.20
28460;DHT22;32528;45.712;9.192;2022-08-04T17:15:36;52.80;25.40
28460;DHT22;32528;45.712;9.192;2022-08-04T17:17:37;52.40;25.40
28460;DHT22;32528;45.712;9.192;2022-08-04T17:19:37;52.40;25.90
28460;DHT22;32528;45.712;9.192;2022-08-04T17:21:38;52.40;25.80